Weather Top, Arizona (BMGR) Weather observations

Data are for 10 minute period ending at time listed.
 Day   Time   Solar   Ave.   Ave.  Ave.  Vector  Max.   Total    
  of    of     Rad.   Air    Rel.  Wind   Wind   Wind  Precip.   
Year   Day            Temp.  Hum.  Speed  Dir.   Gust            
2026   (MST)  Kw/m2    F      %     mph   deg.    mph    in.     
-----------------------------------------------------------------
 124   19:35   0.00   65.3    44    8.0   194    12.7    0.00 
 124   19:40   0.00   65.3    44    9.0   202    13.3    0.00 
 124   19:45   0.00   65.2    44    9.3   208    14.9    0.00 
 124   19:50   0.00   65.3    43    9.1   203    15.5    0.00 
 124   19:55   0.00   65.2    43    8.2   201    14.9    0.00 
 124   20:00   0.00   65.1    43    9.4   203    16.6    0.00 
 124   20:05   0.00   65.0    43    8.7   203    16.6    0.00 
 124   20:10   0.00   64.9    42   12.2   201    21.1    0.00 
 124   20:15   0.00   64.9    37   14.8   202    22.2    0.00 
 124   20:20   0.00   64.7    35   13.2   200    22.2    0.00 
 124   20:25   0.00   64.5    35   14.3   196    23.3    0.00 
 124   20:30   0.00   64.3    34   10.9   201    20.5    0.00 
 124   20:35   0.00   64.1    35   11.6   206    19.4    0.00 
 124   20:40   0.00   63.8    36   11.2   200    18.3    0.00 
 124   20:45   0.00   63.7    36   11.5   201    19.4    0.00 
 124   20:50   0.00   63.6    36    9.6   192    17.7    0.00 
 124   20:55   0.00   63.6    37    7.5   186    14.4    0.00 
 124   21:00   0.00   63.6    37    8.2   197    14.9    0.00 
 124   21:05   0.00   63.6    38    8.3   205    17.2    0.00 
 124   21:10   0.00   63.5    39    8.3   200    16.0    0.00 
 124   21:15   0.00   63.4    40    9.3   197    17.2    0.00 
 124   21:20   0.00   63.1    43    9.0   198    16.6    0.00 
 124   21:25   0.00   63.0    43    8.1   204    13.8    0.00 
 124   21:30   0.00   62.8    43   10.6   191    18.9    0.00 
 124   21:35   0.00   62.6    44    8.8   191    17.2    0.00 
 124   21:40   0.00   62.5    44    7.5   178    12.1    0.00 
 124   21:45   0.00   62.4    45   10.0   189    16.0    0.00 
 124   21:50   0.00   62.3    45    9.3   187    14.4    0.00 
 124   21:55   0.00   62.3    46    9.0   184    17.2    0.00 
 124   22:00   0.00   62.1    46   10.5   170    15.5    0.00 
 124   22:05   0.00   62.0    47    9.4   158    13.8    0.00 
 124   22:10   0.00   62.0    47    9.7   156    17.7    0.00 
 124   22:15   0.00   61.8    50   13.2   147    20.5    0.00 
 124   22:20   0.00   61.7    51   10.6   164    17.2    0.00 
 124   22:25   0.00   61.6    52   10.1   168    17.7    0.00 
 124   22:30   0.00   61.7    52    8.5   176    13.8    0.00 
 124   22:35   0.00   61.9    52    8.4   180    12.7    0.00 
 124   22:40   0.00   62.1    51    6.5   191    10.5    0.00 
 124   22:45   0.00   62.1    51    7.4   182    14.4    0.00 
 124   22:50   0.00   62.0    51    8.0   186    11.6    0.00 
 124   22:55   0.00   61.8    52    7.4   185    11.0    0.00 
 124   23:00   0.00   61.7    51    9.9   189    16.0    0.00 
 124   23:05   0.00   61.8    51    9.4   184    13.8    0.00 
 124   23:10   0.00   61.6    51    9.2   185    16.0    0.00 
 124   23:15   0.00   61.6    50    9.0   178    14.4    0.00 
 124   23:20   0.00   61.6    50    8.7   173    13.8    0.00 
 124   23:25   0.00   61.6    48    9.1   185    14.9    0.00 
 124   23:30   0.00   61.5    48    9.2   191    17.7    0.00 
 124   23:35   0.00   61.3    48   10.7   188    18.3    0.00 
 124   23:40   0.00   61.0    50   10.3   195    18.3    0.00 
 124   23:45   0.00   60.7    52   12.5   184    19.4    0.00 
 124   23:50   0.00   60.6    52    9.2   193    18.3    0.00 
 124   23:55   0.00   60.5    54    9.0   196    18.3    0.00 
 125    0:00   0.00   60.4    55    8.4   196    14.9    0.00 
 125    0:05   0.00   60.2    56    9.6   202    16.0    0.00 
 125    0:10   0.00   60.1    56    9.2   193    16.0    0.00 
 125    0:15   0.00   60.0    57    9.9   190    16.6    0.00 
 125    0:20   0.00   59.8    60   11.5   195    20.0    0.00 
 125    0:25   0.00   59.6    61   11.9   193    19.4    0.00 
 125    0:30   0.00   59.3    62   11.9   187    21.1    0.00 
 125    0:35   0.00   59.2    63   10.3   200    18.3    0.00 
 125    0:40   0.00   59.0    63   12.1   201    18.9    0.00 
 125    0:45   0.00   58.9    64   11.9   202    19.4    0.00 
 125    0:50   0.00   58.8    64   11.0   204    19.4    0.00 
 125    0:55   0.00   58.7    64   10.1   201    17.2    0.00 
 125    1:00   0.00   58.7    64    9.8   210    14.9    0.00 
 125    1:05   0.00   58.6    64    8.9   211    15.5    0.00 
 125    1:10   0.00   58.6    64    8.0   210    13.3    0.00 
 125    1:15   0.00   58.5    64    7.9   211    14.4    0.00 
 125    1:20   0.00   58.6    64    8.0   211    13.3    0.00 
 125    1:25   0.00   58.6    64    8.7   214    14.4    0.00 
 125    1:30   0.00   58.5    64    8.0   208    13.8    0.00 
 125    1:35   0.00   58.4    64    9.5   213    17.2    0.00 
 125    1:40   0.00   58.3    65    7.3   210    13.3    0.00 
 125    1:45   0.00   58.2    65    7.8   214    13.8    0.00 
 125    1:50   0.00   58.1    65    7.0   221    14.9    0.00 
 125    1:55   0.00   58.0    66    4.8   225     8.2    0.00 
 125    2:00   0.00   58.0    66    7.2   214    11.6    0.00 
 125    2:05   0.00   57.9    66    5.3   226     8.8    0.00 
 125    2:10   0.00   57.9    66    5.4   230    11.0    0.00 
 125    2:15   0.00   57.9    67    6.4   223    11.6    0.00 
 125    2:20   0.00   57.9    67    7.0   228    13.3    0.00 
 125    2:25   0.00   57.7    68    8.4   217    13.8    0.00 
 125    2:30   0.00   57.6    68    5.1   218     9.9    0.00 
 125    2:35   0.00   57.4    69    7.1   221    14.4    0.00 
 125    2:40   0.00   57.3    70    6.3   218    11.6    0.00 
 125    2:45   0.00   57.3    70    7.5   221    12.1    0.00 
 125    2:50   0.00   57.3    71    7.7   212    13.3    0.00 
 125    2:55   0.00   57.1    71    6.8   220    12.7    0.00 
 125    3:00   0.00   57.0    71    6.5   221    10.5    0.00 
 125    3:05   0.00   56.9    72    7.7   214    12.1    0.00 
 125    3:10   0.00   56.9    72    6.5   223    11.0    0.00 
 125    3:15   0.00   56.8    72    6.8   221    11.0    0.00 
 125    3:20   0.00   56.9    72    7.3   226    10.5    0.00 
 125    3:25   0.00   56.8    72    6.1   228     9.9    0.00 
 125    3:30   0.00   56.7    72    6.3   226    10.5    0.00 
 125    3:35   0.00   56.5    73    4.5   213     8.8    0.00 
 125    3:40   0.00   56.5    73    5.5   218     7.7    0.00 
 125    3:45   0.00   56.6    73    5.0   224     7.7    0.00 
 125    3:50   0.00   56.5    73    4.8   226     8.8    0.00 
 125    3:55   0.00   56.3    73    3.8   208     7.1    0.00 
 125    4:00   0.00   56.4    73    4.7   219     6.5    0.00 
 125    4:05   0.00   56.5    73    5.0   224     7.1    0.00 
 125    4:10   0.00   56.5    73    5.0   229     7.1    0.00 
 125    4:15   0.00   56.6    73    5.2   230     9.9    0.00 
 125    4:20   0.00   56.6    74    5.8   225     8.8    0.00 
 125    4:25   0.00   56.6    74    6.3   223     9.3    0.00 
 125    4:30   0.00   56.7    74    5.6   230     8.2    0.00 
 125    4:35   0.00   56.8    73    4.5   217     7.7    0.00 
 125    4:40   0.00   56.8    74    5.9   229     9.3    0.00 
 125    4:45   0.00   56.7    74    7.0   224    11.0    0.00 
 125    4:50   0.00   56.5    74    6.4   222     9.3    0.00 
 125    4:55   0.00   56.4    74    5.0   217     8.8    0.00 
 125    5:00   0.00   56.4    74    5.0   211     8.8    0.00 
 125    5:05   0.00   56.3    74    6.0   208     8.8    0.00 
 125    5:10   0.00   56.2    73    4.6   196     8.2    0.00 
 125    5:15   0.00   56.0    73    4.4   161     7.1    0.00 
 125    5:20   0.00   55.9    74    3.9   158     8.2    0.00 
 125    5:25   0.00   55.9    74    3.5   178     6.0    0.00 
 125    5:30   0.00   55.9    74    2.8   208     6.0    0.00 
 125    5:35   0.00   55.9    74    3.4   212     5.4    0.00 
 125    5:40   0.00   55.9    74    5.0   216     8.2    0.00 
 125    5:45   0.00   55.8    75    6.4   214    10.5    0.00 
 125    5:50   0.00   55.7    76    4.5   210     7.7    0.00 
 125    5:55   0.01   55.6    76    3.7   224     6.5    0.00 
 125    6:00   0.01   55.5    76    3.9   217     7.1    0.00 
 125    6:05   0.01   55.5    76    4.0   227     6.5    0.00 
 125    6:10   0.04   55.6    76    4.0   233     6.5    0.00 
 125    6:15   0.03   55.7    75    4.2   226     7.1    0.00 
 125    6:20   0.05   55.6    76    4.0   231     6.5    0.00 
 125    6:25   0.07   55.9    75    1.9   163     4.3    0.00 
 125    6:30   0.09   56.2    71    2.3    72     4.9    0.00 
 125    6:35   0.06   55.9    68    1.4    91     3.8    0.00 
 125    6:40   0.08   55.8    68    2.0    87     3.8    0.00 
 125    6:45   0.06   55.9    68    2.6    94     5.4    0.00 
 125    6:50   0.05   55.9    68    2.4    71     4.9    0.00 
 125    6:55   0.08   55.9    66    3.6    97     6.0    0.00 
 125    7:00   0.08   55.7    64    3.4    38     6.5    0.00 
 125    7:05   0.07   55.6    63    3.1    98     7.7    0.00 
 125    7:10   0.07   55.6    61    3.3    92     7.1    0.00 
 125    7:15   0.08   55.5    56    3.8    94     7.1    0.00 
 125    7:20   0.10   55.7    54    3.2    77     8.2    0.00 
 125    7:25   0.11   55.7    53    3.0    74     6.5    0.00 
 125    7:30   0.09   55.5    53    3.7    68     6.5    0.00 
 125    7:35   0.09   55.6    53    1.8   345     6.0    0.00 
 125    7:40   0.14   55.8    53    1.6   311     5.4    0.00 
 125    7:45   0.19   55.8    52    3.1   296     6.0    0.00 
 125    7:50   0.18   56.3    52    2.4    44     4.9    0.00 
 125    7:55   0.19   56.3    52    3.0   318     7.1    0.00 
 125    8:00   0.18   56.5    52    2.7    46     5.4    0.00 
 125    8:05   0.15   56.5    52    2.0    19     6.5    0.00 
 125    8:10   0.19   56.6    52    2.1   334     5.4    0.00 
 125    8:15   0.22   56.8    52    1.9   309     5.4    0.00 
 125    8:20   0.27   57.2    52    2.2   303     4.9    0.00 
 125    8:25   0.22   57.0    53    2.0   287     6.0    0.00 
 125    8:30   0.24   57.7    52    1.3   252     3.8    0.00 
 125    8:35   0.20   58.1    51    1.7    48     4.9    0.00 
 125    8:40   0.33   58.3    50    2.9   169     6.5    0.00 
 125    8:45   0.57   59.5    48    2.8    92     5.4    0.00 
 125    8:50   0.61   60.8    45    2.7   269     8.2    0.00 
 125    8:55   0.64   60.2    46    2.6   200     6.5    0.00 
 125    9:00   0.67   60.7    44    3.5    75     7.1    0.00 
 125    9:05   0.71   60.5    44    4.2    73    11.6    0.00 
 125    9:10   0.67   60.9    43    4.4    98     8.2    0.00 
 125    9:15   0.67   61.1    42    4.3    26     8.8    0.00 
 125    9:20   0.69   60.2    44    5.0   296    10.5    0.00 
 125    9:25   0.70   60.3    44    4.7    41     8.8    0.00 
 125    9:30   0.71   60.8    42    5.5   311    10.5    0.00 
 125    9:35   0.73   60.3    43    4.9   317    11.0    0.00 
 125    9:40   0.74   60.9    42    5.8   326    14.4    0.00 
 125    9:45   0.76   60.4    43    5.8   316    11.0    0.00 
 125    9:50   0.77   60.6    42    5.2   297    11.0    0.00 
 125    9:55   0.78   61.6    40    5.4    62     9.3    0.00 
 125   10:00   0.80   62.1    39    5.9   313    11.0    0.00 
 125   10:05   0.81   62.4    39    5.1   108     8.2    0.00 
 125   10:10   0.85   63.2    38    4.7    12    11.0    0.00 
 125   10:15   0.98   63.1    38    5.4   322    15.5    0.00 
 125   10:20   1.14   65.2    36    5.3   221    13.3    0.00 
 125   10:25   1.14   63.5    37    6.2   308    11.6    0.00 
 125   10:30   0.65   63.6    37    3.8   334     9.3    0.00 
 125   10:35   0.52   62.7    38    4.6   340     8.8    0.00 
 125   10:40   0.88   63.8    37    4.9    70     8.2    0.00 
 125   10:45   0.97   65.3    35    4.2   342     9.3    0.00 
 125   10:50   0.98   64.5    36    4.7    58    11.6    0.00 
 125   10:55   1.00   66.1    35    4.8    66     9.3    0.00 
 125   11:00   0.99   66.6    34    5.8    80    10.5    0.00 
 125   11:05   0.96   64.9    36    5.5   304    12.1    0.00 
 125   11:10   1.05   64.5    36    4.9   303    11.0    0.00 
 125   11:15   1.08   64.2    37    5.0   308     8.8    0.00 
 125   11:20   0.73   65.3    36    5.1    74    12.7    0.00 
 125   11:25   0.35   65.3    35    5.9   259    12.7    0.00 
 125   11:30   1.05   64.1    37    3.3   277     6.5    0.00 
 125   11:35   1.05   65.5    35    2.2   250     6.0    0.00 
 125   11:40   0.45   66.0    35    3.4    61     7.7    0.00 
 125   11:45   0.36   67.0    34    4.0   100     9.3    0.00 
 125   11:50   0.52   66.7    34    4.8   115     7.7    0.00 
 125   11:55   0.95   66.2    35    6.3   242    11.0    0.00 
 125   12:00   0.92   68.1    33    3.9   171     8.2    0.00 
 125   12:05   0.89   67.8    33    3.6    98     6.5    0.00 
 125   12:10   1.01   67.3    34    5.3    65     9.3    0.00 
 125   12:15   0.68   67.2    34    5.7   340    11.6    0.00 
 125   12:20   0.78   65.9    36    5.4    81     9.9    0.00 
 125   12:25   0.95   66.5    35    5.9   307    12.7    0.00 
 125   12:30   1.21   66.7    35    8.3   315    16.0    0.00 
 125   12:35   0.58   67.6    34    6.1    77    11.0    0.00 
 125   12:40   1.05   69.0    32    4.0    75    11.6    0.00 
 125   12:45   0.99   68.2    33    6.4   318    16.0    0.00 
 125   12:50   0.84   67.4    34    5.8   299    12.1    0.00 
 125   12:55   0.72   67.5    34    6.8    24    12.7    0.00 
 125   13:00   0.52   67.7    34    6.7    53    12.7    0.00 
 125   13:05   0.34   66.1    35    6.4   299    14.4    0.00 
 125   13:10   0.34   65.9    35    3.1    48     9.9    0.00 
 125   13:15   0.47   67.5    33    6.2   130     9.9    0.00 
 125   13:20   0.52   67.4    33    5.9   330    11.6    0.00 
 125   13:25   0.30   67.1    33    4.5   238    10.5    0.00 
 125   13:30   1.03   68.4    32    6.1   124    12.1    0.00 
 125   13:35   0.40   69.1    30    4.8   120     9.3    0.00 
 125   13:40   0.55   67.9    32    4.3   232     8.8    0.00 
 125   13:45   0.78   69.5    30    6.2    84    13.8    0.00 
 125   13:50   0.70   70.0    30    5.2    91    10.5    0.00 
 125   13:55   1.07   69.7    30    6.9    33    14.9    0.00 
 125   14:00   0.76   70.1    30    5.5    80    11.0    0.00 
 125   14:05   0.46   69.9    30    5.3    55    12.7    0.00 
 125   14:10   0.24   68.1    31    5.6   349    17.2    0.00 
 125   14:15   0.85   68.0    31    6.2   347    13.3    0.00 
 125   14:20   1.04   70.8    29    5.7    89    11.6    0.00 
 125   14:25   0.46   69.9    29    5.2   265     9.9    0.00 
 125   14:30   0.85   68.8    30    6.4   318    13.3    0.00 
 125   14:35   0.95   69.3    29    6.0   318    11.0    0.00 
 125   14:40   0.94   72.1    27    7.8    88    12.7    0.00 
 125   14:45   0.63   71.7    27    7.3    81    15.5    0.00 
 125   14:50   0.68   70.0    28    3.5    89     7.1    0.00 
 125   14:55   0.94   70.9    28    5.3    43    11.6    0.00 
 125   15:00   0.48   71.1    27    5.8    71    12.1    0.00 
 125   15:05   0.35   69.2    28    6.4   260    14.4    0.00 
 125   15:10   0.70   69.3    28    7.3   355    13.8    0.00 
 125   15:15   0.88   70.6    27    7.0   102    13.3    0.00 
 125   15:20   0.84   72.3    26    7.6    90    13.3    0.00 
 125   15:25   0.62   70.7    26    6.9    93    14.9    0.00 
 125   15:30   0.46   69.8    27    7.3    50    13.3    0.00 
 125   15:35   0.50   69.3    28    3.9   344     7.7    0.00 
 125   15:40   0.71   70.5    27    3.3   164     8.8    0.00 
 125   15:45   0.44   72.3    25    5.4    92     9.3    0.00 
 125   15:50   0.31   70.0    26    6.6    55    11.0    0.00 
 125   15:55   0.32   70.0    26    4.8   104     8.8    0.00 
 125   16:00   0.30   70.4    26    6.5   102    12.1    0.00 
 125   16:05   0.18   68.6    28    6.1    56    12.1    0.00 
 125   16:10   0.67   69.8    27    5.8   152    12.7    0.00 
 125   16:15   0.43   71.3    26    5.8   105    13.3    0.00 
 125   16:20   0.33   69.5    28    5.2    91    14.9    0.00 
 125   16:25   0.35   69.4    28    4.5   323    10.5    0.00 
 125   16:30   0.58   69.3    28    4.1    52     8.8    0.00 
 125   16:35   0.64   71.2    26    7.4   104    13.8    0.00 
 125   16:40   0.58   71.5    26    7.0   105    13.3    0.00 
 125   16:45   0.40   70.9    26    6.7   111    15.5    0.00 
 125   16:50   0.26   70.4    26    6.6    97    13.8    0.00 
 125   16:55   0.39   70.5    27    5.1    22    13.3    0.00 
 125   17:00   0.08   69.0    28    6.7    75    13.3    0.00 
 125   17:05   0.08   67.6    29    5.9   105    12.7    0.00 
 125   17:10   0.09   67.4    29    4.9    70     9.9    0.00 
 125   17:15   0.20   67.5    29    4.7    45     8.8    0.00 
 125   17:20   0.19   68.0    29    5.2    46     9.9    0.00 
 125   17:25   0.37   69.0    28    4.6   115     9.9    0.00 
 125   17:30   0.32   69.1    28    6.1   319    12.1    0.00 
 125   17:35   0.33   69.8    27    5.7   101    12.7    0.00 
 125   17:40   0.32   69.6    27    4.7    68     9.3    0.00 
 125   17:45   0.31   69.7    28    5.5    57    11.0    0.00 
 125   17:50   0.28   69.7    28    5.8    79    11.0    0.00 
 125   17:55   0.23   69.1    28    6.5   347    16.0    0.00 
 125   18:00   0.22   68.7    28    7.2    32    18.9    0.00 
 125   18:05   0.19   68.5    28    5.3    88     9.9    0.00 
 125   18:10   0.17   68.3    29    6.8    85    14.9    0.00 
 125   18:15   0.16   68.2    29    6.2    43    11.0    0.00 
 125   18:20   0.14   67.8    29    5.6    42     9.9    0.00 
 125   18:25   0.13   68.3    29    4.8    62     9.3    0.00 
 125   18:30   0.11   67.8    29    5.3    86    10.5    0.00 
 125   18:35   0.10   67.7    30    5.5     9    10.5    0.00 
 125   18:40   0.09   67.5    30    4.0    46     8.2    0.00 
 125   18:45   0.07   67.3    30    3.6   101     6.0    0.00 
 125   18:50   0.06   66.8    30    4.9   111    11.6    0.00 
 125   18:55   0.05   66.4    29    4.8    87     9.3    0.00 
 125   19:00   0.04   66.5    29    6.0   304    13.8    0.00 
 125   19:05   0.03   66.1    30    5.9    80     9.9    0.00 
 125   19:10   0.02   65.9    30    5.7    60    10.5    0.00 
 125   19:15   0.01   65.5    30    5.1    87    12.7    0.00 
 125   19:20   0.00   65.0    30    4.6    89     8.2    0.00 
 125   19:25   0.00   64.6    30    5.5    98    10.5    0.00 
 125   19:30   0.00   64.6    30    5.3    95    11.0    0.00 

Return to Weather Top graphs page.


Western Regional Climate Center,wrcc@dri.edu